createdAt,value
2022-08-16T00:00:29.126Z,5.35
2022-08-16T00:03:07.586Z,4.30
2022-08-16T00:05:47.984Z,3.97
2022-08-16T00:08:36.120Z,4.85
2022-08-16T00:11:15.444Z,4.85
2022-08-16T00:13:53.010Z,5.15
2022-08-16T00:17:00.957Z,5.13
2022-08-16T00:19:22.360Z,5.70
2022-08-16T00:21:56.047Z,5.07
2022-08-16T00:24:31.381Z,5.35
2022-08-16T00:27:02.940Z,5.18
2022-08-16T00:29:33.265Z,5.10
2022-08-16T00:32:06.043Z,5.10
2022-08-16T00:34:52.520Z,5.50
2022-08-16T00:37:56.282Z,6.35
2022-08-16T00:40:34.143Z,5.43
2022-08-16T00:43:11.760Z,5.55
2022-08-16T00:45:58.190Z,5.13
2022-08-16T00:48:44.078Z,5.80
2022-08-16T00:51:16.113Z,5.32
2022-08-16T00:53:48.924Z,4.82
2022-08-16T00:56:56.862Z,4.65
2022-08-16T00:59:15.184Z,5.68
2022-08-16T01:04:29.219Z,5.10
2022-08-16T01:07:03.155Z,5.90
2022-08-16T01:09:37.389Z,5.38
2022-08-16T01:12:10.631Z,4.97
2022-08-16T01:14:44.529Z,5.38
2022-08-16T01:17:19.827Z,5.30
2022-08-16T01:20:01.137Z,5.03
2022-08-16T01:22:50.081Z,5.32
2022-08-16T01:25:34.076Z,5.15
2022-08-16T01:28:10.120Z,5.57
2022-08-16T01:30:52.521Z,5.75
2022-08-16T01:33:23.547Z,5.25
2022-08-16T01:35:53.800Z,5.45
2022-08-16T01:38:39.177Z,5.20
2022-08-16T01:41:19.345Z,5.50
2022-08-16T01:43:54.203Z,5.45
2022-08-16T01:46:46.736Z,5.25
2022-08-16T01:49:22.376Z,5.53
2022-08-16T01:51:58.496Z,4.97
2022-08-16T01:54:31.077Z,5.97
2022-08-16T01:57:00.364Z,5.40
2022-08-16T01:59:31.039Z,4.82
2022-08-16T02:02:00.070Z,5.80
2022-08-16T02:04:40.094Z,5.97
2022-08-16T02:07:18.463Z,6.05
2022-08-16T02:09:57.044Z,5.50
2022-08-16T02:12:50.216Z,5.28
2022-08-16T02:15:17.958Z,5.40
2022-08-16T02:17:57.424Z,5.68
2022-08-16T02:20:27.874Z,6.00
2022-08-16T02:23:00.261Z,5.53
2022-08-16T02:25:51.702Z,5.25
2022-08-16T02:28:19.296Z,5.63
2022-08-16T02:30:51.624Z,5.50
2022-08-16T02:33:43.814Z,5.60
2022-08-16T02:36:49.777Z,6.03
2022-08-16T02:39:06.509Z,6.38
2022-08-16T02:41:34.347Z,5.22
2022-08-16T02:44:07.721Z,5.18
2022-08-16T02:46:34.995Z,4.63
2022-08-16T02:49:03.289Z,5.15
2022-08-16T02:51:35.960Z,4.47
2022-08-16T02:54:04.192Z,4.35
2022-08-16T02:56:32.767Z,4.28
2022-08-16T02:59:01.013Z,4.50
2022-08-16T03:01:39.845Z,4.43
2022-08-16T03:04:40.978Z,4.72
2022-08-16T03:06:57.872Z,4.10
2022-08-16T03:09:28.528Z,3.90
2022-08-16T03:11:57.335Z,3.97
2022-08-16T03:14:25.774Z,4.45
2022-08-16T03:17:00.321Z,3.83
2022-08-16T03:19:56.484Z,3.92
2022-08-16T03:22:19.143Z,3.78
2022-08-16T03:25:01.135Z,3.80
2022-08-16T03:27:32.884Z,3.78
2022-08-16T03:30:16.348Z,3.72
2022-08-16T03:32:47.887Z,3.90
2022-08-16T03:35:21.694Z,3.60
2022-08-16T03:38:02.620Z,3.97
2022-08-16T03:40:33.997Z,3.72
2022-08-16T03:43:20.103Z,3.53
2022-08-16T03:45:52.653Z,3.70
2022-08-16T03:48:36.903Z,3.38
2022-08-16T03:51:12.199Z,3.70
2022-08-16T03:53:41.536Z,4.03
2022-08-16T03:56:19.484Z,3.38
2022-08-16T03:58:50.651Z,3.75
2022-08-16T04:01:19.772Z,3.95
2022-08-16T04:03:47.060Z,3.88
2022-08-16T04:06:20.670Z,3.70
2022-08-16T04:08:48.201Z,3.92
2022-08-16T04:11:18.465Z,4.80
2022-08-16T04:14:01.277Z,4.15
2022-08-16T04:16:37.850Z,4.55
2022-08-16T04:19:05.478Z,4.95
2022-08-16T04:21:47.145Z,4.80
2022-08-16T04:24:15.017Z,5.38
2022-08-16T04:26:46.346Z,4.70
2022-08-16T04:29:23.552Z,4.80
2022-08-16T04:31:56.557Z,4.50
2022-08-16T04:34:30.788Z,3.88
2022-08-16T04:37:01.066Z,4.30
2022-08-16T04:39:45.818Z,4.18
2022-08-16T04:42:18.924Z,3.70
2022-08-16T04:44:56.059Z,3.97
2022-08-16T04:47:32.987Z,4.03
2022-08-16T04:50:07.803Z,3.80
2022-08-16T04:52:36.226Z,5.23
2022-08-16T04:55:12.035Z,4.70
2022-08-16T04:57:42.189Z,5.63
2022-08-16T05:00:25.269Z,5.97
2022-08-16T05:03:17.163Z,6.20
2022-08-16T05:05:59.518Z,5.78
2022-08-16T05:08:32.494Z,5.90
2022-08-16T05:11:05.216Z,5.40
2022-08-16T05:13:40.627Z,5.13
2022-08-16T05:16:23.219Z,5.30
2022-08-16T05:18:53.525Z,5.43
2022-08-16T05:21:24.846Z,5.50
2022-08-16T05:23:55.604Z,5.80
2022-08-16T05:26:28.275Z,5.28
2022-08-16T05:29:04.489Z,5.60
2022-08-16T05:31:32.420Z,5.20
2022-08-16T05:34:04.298Z,5.63
2022-08-16T05:36:34.209Z,5.30
2022-08-16T05:39:09.982Z,5.80
2022-08-16T05:41:45.248Z,5.88
2022-08-16T05:44:22.390Z,5.95
2022-08-16T05:46:51.702Z,5.95
2022-08-16T05:49:22.606Z,6.05
2022-08-16T05:51:50.829Z,5.50
2022-08-16T05:54:24.989Z,5.85
2022-08-16T05:56:54.327Z,6.05
2022-08-16T05:59:27.527Z,5.82
2022-08-16T06:01:55.365Z,6.32
2022-08-16T06:04:36.232Z,5.97
2022-08-16T06:07:08.198Z,5.60
2022-08-16T06:09:43.707Z,6.43
2022-08-16T06:12:26.269Z,6.15
2022-08-16T06:14:59.197Z,5.75
2022-08-16T06:17:41.699Z,6.65
2022-08-16T06:20:23.217Z,6.18
2022-08-16T06:23:03.309Z,5.90
2022-08-16T06:25:36.666Z,5.47
2022-08-16T06:28:09.790Z,5.70
2022-08-16T06:30:43.357Z,5.28
2022-08-16T06:33:19.716Z,5.55
2022-08-16T06:35:55.054Z,5.38
2022-08-16T06:38:32.459Z,4.90
2022-08-16T06:41:04.143Z,5.40
2022-08-16T06:43:36.186Z,5.57
2022-08-16T06:46:06.525Z,4.93
2022-08-16T06:48:43.122Z,5.45
2022-08-16T06:51:11.001Z,5.57
2022-08-16T06:53:38.518Z,5.32
2022-08-16T06:56:14.738Z,5.63
2022-08-16T06:58:52.285Z,5.13
2022-08-16T07:01:44.830Z,5.20
2022-08-16T07:04:12.023Z,5.00
2022-08-16T07:06:43.240Z,4.68
2022-08-16T07:09:12.484Z,5.15
2022-08-16T07:11:48.272Z,5.32
2022-08-16T07:14:24.198Z,5.25
2022-08-16T07:16:59.447Z,4.35
2022-08-16T07:19:33.747Z,4.95
2022-08-16T07:22:52.435Z,5.03
2022-08-16T07:25:10.098Z,4.63
2022-08-16T07:27:40.601Z,4.50
2022-08-16T07:30:39.101Z,4.60
2022-08-16T07:33:04.573Z,4.65
2022-08-16T07:35:44.242Z,4.38
2022-08-16T07:38:12.030Z,4.60
2022-08-16T07:41:00.638Z,4.78
2022-08-16T07:43:32.129Z,4.97
2022-08-16T07:46:01.468Z,4.38
2022-08-16T07:48:30.576Z,3.83
2022-08-16T07:51:02.482Z,3.70
2022-08-16T07:53:43.626Z,4.35
2022-08-16T07:56:11.373Z,4.22
2022-08-16T07:58:38.626Z,4.65
2022-08-16T08:01:10.477Z,4.15
2022-08-16T08:03:48.243Z,4.28
2022-08-16T08:06:24.934Z,4.30
2022-08-16T08:08:56.971Z,4.00
2022-08-16T08:11:32.644Z,4.13
2022-08-16T08:14:06.637Z,3.95
2022-08-16T08:16:35.690Z,3.78
2022-08-16T08:19:03.665Z,3.40
2022-08-16T08:21:59.894Z,3.70
2022-08-16T08:24:31.599Z,3.38
2022-08-16T08:27:04.303Z,3.47
2022-08-16T08:29:40.680Z,3.80
2022-08-16T08:32:58.863Z,3.60
2022-08-16T08:35:00.262Z,3.60
2022-08-16T08:37:54.704Z,3.40
2022-08-16T08:40:24.698Z,3.15
2022-08-16T08:43:00.836Z,3.80
2022-08-16T08:45:52.876Z,3.70
2022-08-16T08:48:33.725Z,3.30
2022-08-16T08:51:08.969Z,3.05
2022-08-16T08:53:39.816Z,3.20
2022-08-16T08:56:23.573Z,3.08
2022-08-16T08:58:58.860Z,3.00
2022-08-16T09:01:36.724Z,3.05
2022-08-16T09:04:14.865Z,3.63
2022-08-16T09:06:48.432Z,3.17
2022-08-16T09:09:16.803Z,3.00
2022-08-16T09:11:53.813Z,3.40
2022-08-16T09:14:34.505Z,2.78
2022-08-16T09:17:11.788Z,2.97
2022-08-16T09:19:55.099Z,3.00
2022-08-16T09:22:29.514Z,2.90
2022-08-16T09:25:09.878Z,2.60
2022-08-16T09:27:57.369Z,2.88
2022-08-16T09:30:33.353Z,2.90
2022-08-16T09:33:06.754Z,2.60
2022-08-16T09:35:37.313Z,2.63
2022-08-16T09:38:08.466Z,3.00
2022-08-16T09:40:42.769Z,3.00
2022-08-16T09:43:46.403Z,2.63
2022-08-16T09:46:33.364Z,2.75
2022-08-16T09:48:58.235Z,3.15
2022-08-16T09:51:36.536Z,3.10
2022-08-16T09:54:05.940Z,3.20
2022-08-16T09:56:35.363Z,3.50
2022-08-16T09:59:07.872Z,3.20
2022-08-16T10:01:38.572Z,3.10
2022-08-16T10:04:31.243Z,3.67
2022-08-16T10:09:53.707Z,3.00
2022-08-16T10:12:55.762Z,3.40
2022-08-16T10:15:26.029Z,3.42
2022-08-16T10:18:01.442Z,3.28
2022-08-16T10:20:35.362Z,3.83
2022-08-16T10:23:08.420Z,3.20
2022-08-16T10:27:20.518Z,3.38
2022-08-16T10:28:32.349Z,3.28
2022-08-16T10:31:14.506Z,3.45
2022-08-16T10:33:45.326Z,3.90
2022-08-16T10:36:37.911Z,3.88
2022-08-16T10:39:02.944Z,3.47
2022-08-16T10:41:32.838Z,3.63
2022-08-16T10:44:00.255Z,3.45
2022-08-16T10:46:39.843Z,3.58
2022-08-16T10:49:11.846Z,3.20
2022-08-16T10:52:01.388Z,3.83
2022-08-16T10:54:30.650Z,3.13
2022-08-16T10:57:00.629Z,3.75
2022-08-16T10:59:39.147Z,3.60
2022-08-16T11:02:58.304Z,3.83
2022-08-16T11:05:06.369Z,3.38
2022-08-16T11:07:43.552Z,3.95
2022-08-16T11:13:58.147Z,3.42
2022-08-16T11:17:02.116Z,3.70
2022-08-16T11:19:06.303Z,3.95
2022-08-16T11:24:42.359Z,3.92
2022-08-16T11:27:19.673Z,3.58
2022-08-16T11:29:54.898Z,3.83
2022-08-16T11:32:31.818Z,3.53
2022-08-16T11:35:13.873Z,4.53
2022-08-16T11:38:47.038Z,4.30
2022-08-16T11:40:52.246Z,4.18
2022-08-16T11:43:30.551Z,3.80
2022-08-16T11:46:27.869Z,3.65
2022-08-16T11:48:48.408Z,3.90
2022-08-16T11:51:16.188Z,3.72
2022-08-16T11:53:43.604Z,3.20
2022-08-16T11:56:14.998Z,3.70
2022-08-16T11:58:44.761Z,3.35
2022-08-16T12:01:19.845Z,3.67
2022-08-16T12:03:59.289Z,3.10
2022-08-16T12:06:30.610Z,3.30
2022-08-16T12:09:02.115Z,3.60
2022-08-16T12:11:33.453Z,3.35
2022-08-16T12:14:04.334Z,3.35
2022-08-16T12:16:34.314Z,3.60
2022-08-16T12:19:07.413Z,3.72
2022-08-16T12:21:58.665Z,3.50
2022-08-16T12:24:27.502Z,3.33
2022-08-16T12:26:55.519Z,3.45
2022-08-16T12:29:23.183Z,3.80
2022-08-16T12:32:01.151Z,3.40
2022-08-16T12:34:50.730Z,3.38
2022-08-16T12:37:21.592Z,3.75
2022-08-16T12:39:56.873Z,3.60
2022-08-16T12:42:34.788Z,3.25
2022-08-16T12:45:06.750Z,3.65
2022-08-16T12:48:04.857Z,3.17
2022-08-16T12:50:40.011Z,3.60
2022-08-16T12:53:09.944Z,3.58
2022-08-16T12:55:41.885Z,4.03
2022-08-16T12:58:48.762Z,3.42
2022-08-16T13:01:04.028Z,3.67
2022-08-16T13:03:40.219Z,4.05
2022-08-16T13:06:08.769Z,3.97
2022-08-16T13:08:36.522Z,3.28
2022-08-16T13:11:05.083Z,3.85
2022-08-16T13:13:35.659Z,3.72
2022-08-16T13:16:15.361Z,3.45
2022-08-16T13:18:54.607Z,4.03
2022-08-16T13:21:24.170Z,3.67
2022-08-16T13:23:55.367Z,4.32
2022-08-16T13:26:26.413Z,3.63
2022-08-16T13:28:58.677Z,3.55
2022-08-16T13:31:26.842Z,3.90
2022-08-16T13:33:58.873Z,4.03
2022-08-16T13:36:48.103Z,4.17
2022-08-16T13:39:14.399Z,4.20
2022-08-16T13:41:42.293Z,3.80
2022-08-16T13:44:10.163Z,3.50
2022-08-16T13:46:38.789Z,3.83
2022-08-16T13:49:06.928Z,3.45
2022-08-16T13:51:34.776Z,4.22
2022-08-16T13:54:08.261Z,3.78
2022-08-16T13:56:39.647Z,4.10
2022-08-16T13:59:16.578Z,4.32
2022-08-16T14:01:55.004Z,3.58
2022-08-16T14:04:40.265Z,4.00
2022-08-16T14:07:24.293Z,3.85
2022-08-16T14:09:55.348Z,3.67
2022-08-16T14:12:30.019Z,4.32
2022-08-16T14:15:01.035Z,4.00
2022-08-16T14:17:31.234Z,3.67
2022-08-16T14:20:22.205Z,4.03
2022-08-16T14:22:54.499Z,4.15
2022-08-16T14:25:25.232Z,4.05
2022-08-16T14:27:55.059Z,3.60
2022-08-16T14:30:26.134Z,3.88
2022-08-16T14:32:54.135Z,3.75
2022-08-16T14:35:29.372Z,3.83
2022-08-16T14:38:05.132Z,3.80
2022-08-16T14:40:33.100Z,3.53
2022-08-16T14:43:06.915Z,3.97
2022-08-16T14:45:35.415Z,3.40
2022-08-16T14:48:03.087Z,3.95
2022-08-16T14:50:34.596Z,3.58
2022-08-16T14:53:06.040Z,3.42
2022-08-16T14:55:36.491Z,3.78
2022-08-16T14:58:05.385Z,4.18
2022-08-16T15:00:36.476Z,4.03
2022-08-16T15:03:10.576Z,3.55
2022-08-16T15:05:41.784Z,3.85
2022-08-16T15:08:10.890Z,3.65
2022-08-16T15:10:44.786Z,4.00
2022-08-16T15:13:19.009Z,3.72
2022-08-16T15:15:51.474Z,3.88
2022-08-16T15:18:28.026Z,3.70
2022-08-16T15:21:02.629Z,3.58
2022-08-16T15:23:33.744Z,3.67
2022-08-16T15:26:03.994Z,3.65
2022-08-16T15:28:37.175Z,4.13
2022-08-16T15:31:09.208Z,3.95
2022-08-16T15:33:45.417Z,3.60
2022-08-16T15:36:20.414Z,3.47
2022-08-16T15:39:02.763Z,4.13
2022-08-16T15:41:47.820Z,3.90
2022-08-16T15:44:22.994Z,3.55
2022-08-16T15:46:58.638Z,3.67
2022-08-16T15:49:38.095Z,3.40
2022-08-16T15:54:53.332Z,2.92
2022-08-16T15:57:25.398Z,2.97
2022-08-16T15:59:57.781Z,3.30
2022-08-16T16:02:32.104Z,3.28
2022-08-16T16:05:06.696Z,3.42
2022-08-16T16:07:35.995Z,3.33
2022-08-16T16:10:07.996Z,3.70
2022-08-16T16:12:51.114Z,3.65
2022-08-16T16:15:29.460Z,3.30
2022-08-16T16:18:09.588Z,3.67
2022-08-16T16:20:43.883Z,3.22
2022-08-16T16:23:13.810Z,3.38
2022-08-16T16:25:44.716Z,3.75
2022-08-16T16:29:06.428Z,3.63
2022-08-16T16:31:09.684Z,3.20
2022-08-16T16:33:41.982Z,3.65
2022-08-16T16:36:16.247Z,3.40
2022-08-16T16:38:49.050Z,3.40
2022-08-16T16:41:22.722Z,3.58
2022-08-16T16:43:54.730Z,3.30
2022-08-16T16:46:42.020Z,3.40
2022-08-16T16:49:16.851Z,3.70
2022-08-16T16:54:27.679Z,3.25
2022-08-16T16:56:58.130Z,3.15
2022-08-16T16:59:27.931Z,3.30
2022-08-16T17:02:41.487Z,3.42
2022-08-16T17:04:48.231Z,3.67
2022-08-16T17:07:16.366Z,3.67
2022-08-16T17:09:46.824Z,3.50
2022-08-16T17:12:24.974Z,3.80
2022-08-16T17:14:56.445Z,3.30
2022-08-16T17:17:26.770Z,3.92
2022-08-16T17:22:33.002Z,3.72
2022-08-16T17:25:01.447Z,3.40
2022-08-16T17:27:50.679Z,3.50
2022-08-16T17:30:22.112Z,3.38
2022-08-16T17:33:01.161Z,3.50
2022-08-16T17:35:55.892Z,3.80
2022-08-16T17:38:32.876Z,3.67
2022-08-16T17:41:07.939Z,3.22
2022-08-16T17:43:44.302Z,3.25
2022-08-16T17:46:51.557Z,4.03
2022-08-16T17:49:03.176Z,4.05
2022-08-16T17:51:31.027Z,3.55
2022-08-16T17:54:03.248Z,3.72
2022-08-16T17:56:31.103Z,3.58
2022-08-16T17:59:01.926Z,3.70
2022-08-16T18:01:29.790Z,3.55
2022-08-16T18:04:09.164Z,3.42
2022-08-16T18:06:38.633Z,3.40
2022-08-16T18:09:10.354Z,3.47
2022-08-16T18:11:42.956Z,3.10
2022-08-16T18:14:12.730Z,3.42
2022-08-16T18:16:41.264Z,3.20
2022-08-16T18:19:10.468Z,2.72
2022-08-16T18:21:56.789Z,3.30
2022-08-16T18:24:26.421Z,3.05
2022-08-16T18:26:54.290Z,3.05
2022-08-16T18:29:24.528Z,3.50
2022-08-16T18:31:51.833Z,3.17
2022-08-16T18:34:22.259Z,2.63
2022-08-16T18:36:52.072Z,3.13
2022-08-16T18:39:21.541Z,3.17
2022-08-16T18:41:56.397Z,3.47
2022-08-16T18:44:29.228Z,3.70
2022-08-16T18:47:02.370Z,3.22
2022-08-16T18:49:29.638Z,3.00
2022-08-16T18:51:59.157Z,3.10
2022-08-16T18:54:28.237Z,3.10
2022-08-16T18:56:57.908Z,3.95
2022-08-16T18:59:33.147Z,3.13
2022-08-16T19:02:05.648Z,3.75
2022-08-16T19:04:47.573Z,3.53
2022-08-16T19:07:31.485Z,3.33
2022-08-16T19:10:05.916Z,3.10
2022-08-16T19:12:37.930Z,3.17
2022-08-16T19:15:16.249Z,3.45
2022-08-16T19:17:44.918Z,3.45
2022-08-16T19:20:14.519Z,3.30
2022-08-16T19:25:46.631Z,3.20
2022-08-16T19:28:50.709Z,3.22
2022-08-16T19:31:27.590Z,3.45
2022-08-16T19:33:56.716Z,3.60
2022-08-16T19:36:36.122Z,3.30
2022-08-16T19:39:15.974Z,3.15
2022-08-16T19:42:39.921Z,3.50
2022-08-16T19:44:43.159Z,3.28
2022-08-16T19:47:11.743Z,3.40
2022-08-16T19:49:42.213Z,3.60
2022-08-16T19:52:29.526Z,3.78
2022-08-16T19:55:04.793Z,3.33
2022-08-16T19:57:45.396Z,3.22
2022-08-16T20:00:15.727Z,3.38
2022-08-16T20:02:51.122Z,3.78
2022-08-16T20:05:24.145Z,3.58
2022-08-16T20:07:51.627Z,3.47
2022-08-16T20:10:24.875Z,3.50
2022-08-16T20:13:02.119Z,3.95
2022-08-16T20:15:31.521Z,3.90
2022-08-16T20:17:58.961Z,4.00
2022-08-16T20:20:28.434Z,4.00
2022-08-16T20:22:57.526Z,4.15
2022-08-16T20:25:31.670Z,4.03
2022-08-16T20:28:00.931Z,4.40
2022-08-16T20:30:28.540Z,4.30
2022-08-16T20:32:56.120Z,4.28
2022-08-16T20:35:27.411Z,3.80
2022-08-16T20:37:55.946Z,3.95
2022-08-16T20:40:34.757Z,3.33
2022-08-16T20:43:16.490Z,3.97
2022-08-16T20:45:50.118Z,3.60
2022-08-16T20:48:19.902Z,4.00
2022-08-16T20:50:47.253Z,4.57
2022-08-16T20:53:16.967Z,4.32
2022-08-16T20:55:46.772Z,4.53
2022-08-16T20:58:19.505Z,4.50
2022-08-16T21:00:49.771Z,5.13
2022-08-16T21:03:19.667Z,4.63
2022-08-16T21:05:46.944Z,4.30
2022-08-16T21:08:51.618Z,4.25
2022-08-16T21:11:04.446Z,4.32
2022-08-16T21:13:32.691Z,4.15
2022-08-16T21:16:02.488Z,4.55
2022-08-16T21:18:30.017Z,5.00
2022-08-16T21:20:57.288Z,5.35
2022-08-16T21:23:25.483Z,4.70
2022-08-16T21:25:59.020Z,4.70
2022-08-16T21:28:39.995Z,4.75
2022-08-16T21:31:15.471Z,4.38
2022-08-16T21:33:44.436Z,4.75
2022-08-16T21:36:14.726Z,4.78
2022-08-16T21:38:44.427Z,4.30
2022-08-16T21:41:12.868Z,4.18
2022-08-16T21:43:45.692Z,4.82
2022-08-16T21:46:13.369Z,4.45
2022-08-16T21:48:40.928Z,4.53
2022-08-16T21:51:12.202Z,5.15
2022-08-16T21:53:41.538Z,4.80
2022-08-16T21:56:12.570Z,4.78
2022-08-16T21:58:52.750Z,4.43
2022-08-16T22:01:25.343Z,4.63
2022-08-16T22:04:35.661Z,4.95
2022-08-16T22:06:44.146Z,4.43
2022-08-16T22:09:15.253Z,4.50
2022-08-16T22:11:44.127Z,4.43
2022-08-16T22:14:11.556Z,4.43
2022-08-16T22:16:41.721Z,4.13
2022-08-16T22:19:09.873Z,4.50
2022-08-16T22:21:37.706Z,4.63
2022-08-16T22:24:05.162Z,4.32
2022-08-16T22:26:39.618Z,4.57
2022-08-16T22:29:12.835Z,4.55
2022-08-16T22:31:40.868Z,4.75
2022-08-16T22:34:09.007Z,5.00
2022-08-16T22:36:37.244Z,5.05
2022-08-16T22:39:08.017Z,4.60
2022-08-16T22:41:38.962Z,4.30
2022-08-16T22:44:09.267Z,4.82
2022-08-16T22:46:39.058Z,4.45
2022-08-16T22:49:07.367Z,4.55
2022-08-16T22:51:38.174Z,4.80
2022-08-16T22:54:42.518Z,4.18
2022-08-16T22:56:57.629Z,4.70
2022-08-16T22:59:25.246Z,4.50
2022-08-16T23:01:54.770Z,4.93
2022-08-16T23:04:25.164Z,4.68
2022-08-16T23:06:52.657Z,4.45
2022-08-16T23:09:20.303Z,4.85
2022-08-16T23:11:47.705Z,4.75
2022-08-16T23:14:18.049Z,4.63
2022-08-16T23:16:47.183Z,5.30
2022-08-16T23:19:16.134Z,4.72
2022-08-16T23:21:46.920Z,4.50
2022-08-16T23:24:19.338Z,4.63
2022-08-16T23:26:49.805Z,4.60
2022-08-16T23:29:24.668Z,4.57
2022-08-16T23:32:03.007Z,4.60
2022-08-16T23:34:32.602Z,4.90
2022-08-16T23:37:02.350Z,4.97
2022-08-16T23:39:31.993Z,4.95
2022-08-16T23:42:01.968Z,4.63
2022-08-16T23:44:57.719Z,4.80
2022-08-16T23:47:16.386Z,4.90
2022-08-16T23:50:00.199Z,5.40
2022-08-16T23:52:53.084Z,5.10
2022-08-16T23:55:17.758Z,5.05
2022-08-16T23:57:46.180Z,5.40
